Avalon — PBSF — position and weather

sailwx.info

Track history (hours):
 
Tides and Currents Weather Stations Pressure Air Temp Water Temp Dewpoint Dewpoint Depression Visibility Wind Speed Wind Dir Waves Ship Positions

Avalon

Last reported at 2015-May-05 00:33 UTC. Time now 2015-May-05 01:11 UTC.
Position N 54°49' E 012°50'.

Length 89 m; draft 5.5 m.

Type: Cargo ship. MMSI: 246578000.

Date/timePositionNaut miles runAvg speedWind from/ knotsBaromVisibWave heightAir tempDewpointWater temp
2015-May-05 00:33N 54°49' E 012°50'10 9.6
2015-May-04 23:33N 54°53' E 013°06'1010.0
2015-May-04 22:33N 54°56' E 013°22'10 9.8
2015-May-04 21:33N 54°59' E 013°38'10 9.6
2015-May-04 20:32N 55°02' E 013°54'10 8.8
2015-May-04 19:26N 55°08' E 014°09'9 9.5
2015-May-04 18:27N 55°15' E 014°19'9 9.6
2015-May-04 17:32N 55°22' E 014°29'10 9.4
2015-May-04 16:30N 55°28' E 014°42'9 9.2
2015-May-04 15:33N 55°32' E 014°55'10 9.4
2015-May-04 14:32N 55°37' E 015°10'101 9.1
2015-May-04 03:23N 56°03' E 018°05'11 9.5
2015-May-04 02:14N 56°06' E 018°24'7 9.7
2015-May-04 01:33N 56°08' E 018°35'10 9.8
2015-May-04 00:33N 56°11' E 018°52'  
2015-May-01 05:33N 55°51' E 017°38'9 9.2
2015-May-01 04:32N 55°48' E 017°22'63 9.1
2015-Apr-30 21:33N 55°32' E 015°34'9 8.9
2015-Apr-30 20:33N 55°30' E 015°18'9 9.1
2015-Apr-30 19:33N 55°28' E 015°03'9 9.3
2015-Apr-30 18:33N 55°25' E 014°47'10 9.3
2015-Apr-30 17:31N 55°19' E 014°33'9 9.6
2015-Apr-30 16:33N 55°13' E 014°22'18 9.2
2015-Apr-30 14:32N 55°11' E 013°50'1410.5
2015-Apr-30 13:12N 55°13' E 013°25'710.7
2015-Apr-30 12:33N 55°13' E 013°13'1111.1
2015-Apr-30 11:33N 55°15' E 012°54'1010.4
2015-Apr-30 10:33N 55°20' E 012°38'1010.2
2015-Apr-30 09:33N 55°30' E 012°41'9 9.5
2015-Apr-30 08:33N 55°39' E 012°41'9 8.8
2015-Apr-30 07:33N 55°48' E 012°42'9 9.2
2015-Apr-30 06:33N 55°57' E 012°38'8 8.0
2015-Apr-30 05:33N 56°05' E 012°35'8 7.5
2015-Apr-30 04:33N 56°09' E 012°25'9 9.1
2015-Apr-30 03:34N 56°15' E 012°12'9 9.2
2015-Apr-30 02:33N 56°22' E 012°01'9 8.8
2015-Apr-30 01:33N 56°30' E 011°58'8 8.3
2015-Apr-30 00:33N 56°38' E 011°54'8 8.2
2015-Apr-29 23:33N 56°46' E 011°51'9 8.4
2015-Apr-29 22:33N 56°54' E 011°46'8 8.4
2015-Apr-29 21:33N 57°02' E 011°41'8 8.2
2015-Apr-29 20:33N 57°10' E 011°35'9 8.7
2015-Apr-29 19:33N 57°18' E 011°29'9 9.4
2015-Apr-29 18:33N 57°27' E 011°23'8 8.5
2015-Apr-29 17:33N 57°32' E 011°11'8 7.5
2015-Apr-29 16:33N 57°35' E 010°58'9 8.1
2015-Apr-29 15:31N 57°39' E 010°43'5 0.2
2015-Apr-28 12:30N 57°41' E 010°35'0 0.0
2015-Apr-28 10:06N 57°41' E 010°35'0 0.0
2015-Apr-28 07:27N 57°41' E 010°35'0 0.0
2015-Apr-28 06:18N 57°41' E 010°35'0 0.0
2015-Apr-28 05:12N 57°41' E 010°35'0 0.0
2015-Apr-28 04:12N 57°41' E 010°35'0 0.0
2015-Apr-28 03:33N 57°41' E 010°35'0 0.0
2015-Apr-28 02:24N 57°41' E 010°35'0 0.0
2015-Apr-27 16:24N 57°41' E 010°35'0 0.0
2015-Apr-27 05:30N 57°41' E 010°35'0 0.0
2015-Apr-27 04:27N 57°41' E 010°35'0 0.0
2015-Apr-26 23:15N 57°41' E 010°35'0 0.0
2015-Apr-26 22:30N 57°41' E 010°35'0 0.0
2015-Apr-26 09:09N 57°41' E 010°35'0 0.0
2015-Apr-26 06:15N 57°41' E 010°35'0 0.0
2015-Apr-25 22:27N 57°41' E 010°35'0 0.0
2015-Apr-25 19:33N 57°41' E 010°35'0 0.0
2015-Apr-25 18:18N 57°41' E 010°35'0 0.0
2015-Apr-25 16:27N 57°41' E 010°35'0 0.0
2015-Apr-25 14:21N 57°41' E 010°35'0 0.0
2015-Apr-25 11:27N 57°41' E 010°35'0 0.0
2015-Apr-25 09:12N 57°41' E 010°35'0 0.0
2015-Apr-25 08:33N 57°41' E 010°35'0 0.0
2015-Apr-25 06:27N 57°41' E 010°35'0 0.0
2015-Apr-25 05:12N 57°41' E 010°35'0 0.0
2015-Apr-25 04:18N 57°41' E 010°35'0 0.0
2015-Apr-25 02:18N 57°41' E 010°35'  
Track history (hours):
 
Tides and Currents Weather Stations Pressure Air Temp Water Temp Dewpoint Dewpoint Depression Visibility Wind Speed Wind Dir Waves Ship Positions

Avalon

Last reported at 2015-May-05 00:33 UTC. Time now 2015-May-05 01:11 UTC.
Position N 54°49' E 012°50'.

Length 89 m; draft 5.5 m.

Type: Cargo ship. MMSI: 246578000.

Date/timePositionNaut miles runAvg speedWind from/ knotsBaromVisibWave heightAir tempDewpointWater temp
2015-May-05 00:33N 54°49' E 012°50'10 9.6
2015-May-04 23:33N 54°53' E 013°06'1010.0
2015-May-04 22:33N 54°56' E 013°22'10 9.8
2015-May-04 21:33N 54°59' E 013°38'10 9.6
2015-May-04 20:32N 55°02' E 013°54'10 8.8
2015-May-04 19:26N 55°08' E 014°09'9 9.5
2015-May-04 18:27N 55°15' E 014°19'9 9.6
2015-May-04 17:32N 55°22' E 014°29'10 9.4
2015-May-04 16:30N 55°28' E 014°42'9 9.2
2015-May-04 15:33N 55°32' E 014°55'10 9.4
2015-May-04 14:32N 55°37' E 015°10'101 9.1
2015-May-04 03:23N 56°03' E 018°05'11 9.5
2015-May-04 02:14N 56°06' E 018°24'7 9.7
2015-May-04 01:33N 56°08' E 018°35'10 9.8
2015-May-04 00:33N 56°11' E 018°52'  
2015-May-01 05:33N 55°51' E 017°38'9 9.2
2015-May-01 04:32N 55°48' E 017°22'63 9.1
2015-Apr-30 21:33N 55°32' E 015°34'9 8.9
2015-Apr-30 20:33N 55°30' E 015°18'9 9.1
2015-Apr-30 19:33N 55°28' E 015°03'9 9.3
2015-Apr-30 18:33N 55°25' E 014°47'10 9.3
2015-Apr-30 17:31N 55°19' E 014°33'9 9.6
2015-Apr-30 16:33N 55°13' E 014°22'18 9.2
2015-Apr-30 14:32N 55°11' E 013°50'1410.5
2015-Apr-30 13:12N 55°13' E 013°25'710.7
2015-Apr-30 12:33N 55°13' E 013°13'1111.1
2015-Apr-30 11:33N 55°15' E 012°54'1010.4
2015-Apr-30 10:33N 55°20' E 012°38'1010.2
2015-Apr-30 09:33N 55°30' E 012°41'9 9.5
2015-Apr-30 08:33N 55°39' E 012°41'9 8.8
2015-Apr-30 07:33N 55°48' E 012°42'9 9.2
2015-Apr-30 06:33N 55°57' E 012°38'8 8.0
2015-Apr-30 05:33N 56°05' E 012°35'8 7.5
2015-Apr-30 04:33N 56°09' E 012°25'9 9.1
2015-Apr-30 03:34N 56°15' E 012°12'9 9.2
2015-Apr-30 02:33N 56°22' E 012°01'9 8.8
2015-Apr-30 01:33N 56°30' E 011°58'8 8.3
2015-Apr-30 00:33N 56°38' E 011°54'8 8.2
2015-Apr-29 23:33N 56°46' E 011°51'9 8.4
2015-Apr-29 22:33N 56°54' E 011°46'8 8.4
2015-Apr-29 21:33N 57°02' E 011°41'8 8.2
2015-Apr-29 20:33N 57°10' E 011°35'9 8.7
2015-Apr-29 19:33N 57°18' E 011°29'9 9.4
2015-Apr-29 18:33N 57°27' E 011°23'8 8.5
2015-Apr-29 17:33N 57°32' E 011°11'8 7.5
2015-Apr-29 16:33N 57°35' E 010°58'9 8.1
2015-Apr-29 15:31N 57°39' E 010°43'5 0.2
2015-Apr-28 12:30N 57°41' E 010°35'0 0.0
2015-Apr-28 10:06N 57°41' E 010°35'0 0.0
2015-Apr-28 07:27N 57°41' E 010°35'0 0.0
2015-Apr-28 06:18N 57°41' E 010°35'0 0.0
2015-Apr-28 05:12N 57°41' E 010°35'0 0.0
2015-Apr-28 04:12N 57°41' E 010°35'0 0.0
2015-Apr-28 03:33N 57°41' E 010°35'0 0.0
2015-Apr-28 02:24N 57°41' E 010°35'0 0.0
2015-Apr-27 16:24N 57°41' E 010°35'0 0.0
2015-Apr-27 05:30N 57°41' E 010°35'0 0.0
2015-Apr-27 04:27N 57°41' E 010°35'0 0.0
2015-Apr-26 23:15N 57°41' E 010°35'0 0.0
2015-Apr-26 22:30N 57°41' E 010°35'0 0.0
2015-Apr-26 09:09N 57°41' E 010°35'0 0.0
2015-Apr-26 06:15N 57°41' E 010°35'0 0.0
2015-Apr-25 22:27N 57°41' E 010°35'0 0.0
2015-Apr-25 19:33N 57°41' E 010°35'0 0.0
2015-Apr-25 18:18N 57°41' E 010°35'0 0.0
2015-Apr-25 16:27N 57°41' E 010°35'0 0.0
2015-Apr-25 14:21N 57°41' E 010°35'0 0.0
2015-Apr-25 11:27N 57°41' E 010°35'0 0.0
2015-Apr-25 09:12N 57°41' E 010°35'0 0.0
2015-Apr-25 08:33N 57°41' E 010°35'0 0.0
2015-Apr-25 06:27N 57°41' E 010°35'0 0.0
2015-Apr-25 05:12N 57°41' E 010°35'0 0.0
2015-Apr-25 04:18N 57°41' E 010°35'0 0.0
2015-Apr-25 02:18N 57°41' E 010°35'  

Dump ship's entire track history